GMMN/CMN METAR and TAF weather

Enter ICAO airport designator
Station Type Date Time Source
GMMN METAR 2018/04/27 01:00 UTC NOAA

GMMN 270100Z 01006KT 6000 BKN006 16/16 Q1017 NOSIG


Station Type Date Time Source
GMMN Decoded METAR 2018/04/27 01:00 UTC NOAA

Nouasseur, Morocco (GMMN) 33-22N 007-35W 206M
Apr 26, 2018 - 09:00 PM EDT / 2018.04.27 0100 UTC
Wind: from the N (010 degrees) at 7 MPH (6 KT):0
Visibility: 3 mile(s):0
Sky conditions: mostly cloudy
Temperature: 60 F (16 C)
Dew Point: 60 F (16 C)
Relative Humidity: 100%
Pressure (altimeter): 30.03 in. Hg (1017 hPa)
ob: GMMN 270100Z 01006KT 6000 BKN006 16/16 Q1017 NOSIG
cycle: 1

Station Type Date Time Source
GMMN TAF 2018/04/26 12:18 UTC NOAA

TAF GMMN 261100Z 2612/2718 30007KT 9999 BKN016
BECMG 2618/2700 36008KT
TEMPO 2700/2708 VRB02KT 4000 BR


Example: see airport list